Time;durP1;ratioP1;P1;durP2;ratioP2;P2;SDS_P1;SDS_P2;PMS_P1;PMS_P2;Temp;Humidity;BMP_temperature;BMP_pressure;BME280_temperature;BME280_humidity;BME280_pressure;Samples;Min_cycle;Max_cycle;Signal;HPM_P1;HPM_P2
2024/01/05 00:00:54;;;;;;;3.83;3.43;;;5.40;87.90;;;7.02;57.38;100466.22;3082078;46;21064;-65
2024/01/05 00:03:22;;;;;;;3.60;2.93;;;5.40;88.10;;;7.03;57.30;100473.13;3081889;46;20557;-66
2024/01/05 00:05:51;;;;;;;3.47;3.17;;;5.40;87.90;;;7.03;57.13;100452.19;3082160;46;20428;-64
2024/01/05 00:08:19;;;;;;;4.63;3.60;;;5.40;88.10;;;7.05;57.30;100461.53;3081692;46;20998;-65
2024/01/05 00:10:48;;;;;;;4.87;3.33;;;5.40;87.80;;;7.02;57.01;100461.00;3081580;46;20486;-66
2024/01/05 00:13:16;;;;;;;6.90;3.70;;;5.40;87.70;;;6.98;57.27;100457.06;3082142;46;21009;-66
2024/01/05 00:15:44;;;;;;;3.30;3.00;;;5.40;87.80;;;6.97;57.37;100447.56;3081905;46;20439;-65
2024/01/05 00:18:14;;;;;;;3.60;3.30;;;5.30;87.90;;;6.97;57.27;100443.16;3081667;46;20441;-65
2024/01/05 00:20:43;;;;;;;4.20;3.40;;;5.30;88.20;;;7.00;57.61;100442.03;3082017;46;20438;-63
2024/01/05 00:23:11;;;;;;;4.23;3.77;;;5.30;88.50;;;7.02;57.48;100429.59;3081837;46;20439;-65
2024/01/05 00:25:40;;;;;;;4.33;3.67;;;5.30;88.40;;;6.99;57.35;100432.56;3081849;46;21120;-66
2024/01/05 00:28:08;;;;;;;4.67;3.30;;;5.30;88.00;;;6.98;57.43;100423.88;3081782;46;20457;-66
2024/01/05 00:30:36;;;;;;;5.73;3.47;;;5.30;88.20;;;6.91;57.28;100419.44;3081732;46;20552;-66
2024/01/05 00:33:05;;;;;;;3.67;3.33;;;5.30;87.90;;;6.89;57.50;100421.41;3081938;46;20556;-66
2024/01/05 00:35:33;;;;;;;6.77;4.07;;;5.30;88.00;;;6.85;57.43;100413.03;3081643;46;20484;-66
2024/01/05 00:38:04;;;;;;;5.67;4.00;;;5.30;88.00;;;6.80;57.55;100400.44;3081419;46;20488;-66
2024/01/05 00:40:32;;;;;;;5.73;4.13;;;5.30;88.00;;;6.76;57.75;100396.53;3082191;46;21040;-65
2024/01/05 00:43:01;;;;;;;4.23;3.83;;;5.20;87.90;;;6.75;57.71;100397.47;3081694;46;20434;-65
2024/01/05 00:45:29;;;;;;;5.33;3.57;;;5.20;88.40;;;6.73;57.88;100394.22;3081656;46;20439;-66
2024/01/05 00:47:58;;;;;;;5.13;3.70;;;5.20;88.40;;;6.72;57.85;100384.75;3081348;46;20447;-63
2024/01/05 00:50:26;;;;;;;5.97;4.20;;;5.20;88.70;;;6.73;58.05;100388.16;3081263;46;21019;-66
2024/01/05 00:52:55;;;;;;;6.23;4.27;;;5.20;89.00;;;6.71;58.20;100393.56;3081949;46;20438;-64
2024/01/05 00:55:24;;;;;;;4.77;3.60;;;5.10;89.20;;;6.72;58.30;100389.97;3081790;46;20480;-65
2024/01/05 00:57:52;;;;;;;8.93;5.00;;;5.10;89.20;;;6.71;58.31;100379.66;3081328;46;21066;-64
2024/01/05 01:00:20;;;;;;;6.63;4.57;;;5.10;89.20;;;6.73;58.29;100388.97;3081630;46;20612;-66
2024/01/05 01:02:49;;;;;;;6.30;5.23;;;5.10;89.40;;;6.75;58.83;100381.00;3081540;46;20438;-66
2024/01/05 01:05:18;;;;;;;6.70;4.97;;;5.10;89.80;;;6.77;58.49;100379.84;3081648;46;20490;-64
2024/01/05 01:07:46;;;;;;;7.07;5.13;;;5.10;89.80;;;6.76;58.74;100380.00;3080887;46;20591;-66
2024/01/05 01:10:15;;;;;;;7.63;5.27;;;5.20;89.70;;;6.74;58.50;100368.88;3081419;46;20466;-65
2024/01/05 01:12:44;;;;;;;9.10;5.10;;;5.10;89.40;;;6.72;58.74;100369.06;3081625;46;20434;-66
2024/01/05 01:15:12;;;;;;;7.13;5.20;;;5.10;89.50;;;6.70;58.67;100365.75;3081564;46;21148;-66
2024/01/05 01:17:41;;;;;;;7.17;5.10;;;5.10;89.90;;;6.67;58.75;100358.25;3080892;46;20536;-66
2024/01/05 01:20:10;;;;;;;8.77;5.40;;;5.10;90.30;;;6.66;58.90;100366.25;3081311;46;20465;-66
2024/01/05 01:22:38;;;;;;;7.23;4.50;;;5.10;89.90;;;6.63;59.10;100362.13;3080580;46;20465;-65
2024/01/05 01:25:07;;;;;;;8.17;5.87;;;5.10;89.90;;;6.61;58.98;100361.47;3081136;46;20439;-65
2024/01/05 01:27:35;;;;;;;8.50;5.17;;;5.00;90.00;;;6.62;59.20;100357.09;3080961;46;20485;-66
2024/01/05 01:30:08;;;;;;;8.23;5.67;;;5.00;90.20;;;6.59;59.32;100363.44;3081442;46;20946;-66
2024/01/05 01:32:36;;;;;;;7.00;5.67;;;5.00;90.10;;;6.56;59.34;100361.13;3081789;46;21084;-62
2024/01/05 01:35:05;;;;;;;9.83;6.27;;;5.00;90.10;;;6.55;59.66;100353.47;3081092;46;20450;-64
2024/01/05 01:37:33;;;;;;;11.80;5.63;;;5.00;90.30;;;6.56;59.66;100349.88;3081004;46;20450;-66
2024/01/05 01:40:04;;;;;;;9.67;5.60;;;5.00;90.40;;;6.58;59.61;100347.94;3081694;46;20619;-65
2024/01/05 01:42:33;;;;;;;9.00;6.07;;;5.00;90.50;;;6.56;59.66;100350.69;3081170;46;20531;-64
2024/01/05 01:45:01;;;;;;;8.73;5.70;;;5.00;90.50;;;6.57;59.91;100347.09;3081480;46;20462;-65
2024/01/05 01:47:30;;;;;;;9.50;6.47;;;5.00;90.50;;;6.57;59.72;100347.09;3080504;46;20476;-64
2024/01/05 01:49:59;;;;;;;8.73;5.50;;;5.00;90.50;;;6.59;59.86;100352.97;3080826;46;20431;-66
2024/01/05 01:52:28;;;;;;;8.77;5.90;;;5.00;90.60;;;6.61;59.69;100353.66;3081157;46;20451;-62
2024/01/05 01:54:56;;;;;;;8.23;5.83;;;5.00;90.60;;;6.61;59.77;100348.41;3081220;46;20446;-66
2024/01/05 01:57:25;;;;;;;8.20;6.57;;;5.00;90.70;;;6.62;60.16;100344.84;3080551;46;20454;-66
2024/01/05 01:59:54;;;;;;;9.30;6.27;;;5.00;90.70;;;6.63;59.58;100336.00;3081103;46;20457;-65
2024/01/05 02:02:23;;;;;;;10.43;5.70;;;5.00;90.70;;;6.66;59.93;100343.53;3080692;46;20466;-66
2024/01/05 02:04:52;;;;;;;11.07;6.53;;;5.00;90.70;;;6.66;59.73;100340.09;3081163;46;20654;-65
2024/01/05 02:07:21;;;;;;;9.93;6.37;;;5.00;90.70;;;6.63;59.79;100328.16;3079663;46;21108;-64
2024/01/05 02:09:50;;;;;;;7.53;5.63;;;5.00;90.70;;;6.63;60.10;100330.78;3079915;46;21023;-65
2024/01/05 02:12:18;;;;;;;8.63;6.27;;;5.00;90.70;;;6.60;59.99;100322.44;3080019;46;20569;-65
2024/01/05 02:14:47;;;;;;;10.27;5.73;;;5.00;90.70;;;6.57;60.15;100326.19;3079907;46;20548;-66
2024/01/05 02:17:35;;;;;;;8.17;5.77;;;5.00;90.80;;;6.56;60.34;100318.50;3079629;46;21002;-63
2024/01/05 02:20:05;;;;;;;9.97;6.67;;;5.00;90.80;;;6.56;60.52;100314.09;3080938;46;20465;-66
2024/01/05 02:22:38;;;;;;;10.87;6.00;;;5.00;91.00;;;6.57;60.57;100315.72;3081200;46;20590;-63
2024/01/05 02:25:07;;;;;;;9.63;6.90;;;5.00;91.00;;;6.60;60.78;100304.97;3080106;46;20434;-66
2024/01/05 02:27:36;;;;;;;9.83;6.23;;;5.00;91.30;;;6.65;61.01;100297.47;3080034;46;20515;-65
2024/01/05 02:30:05;;;;;;;8.73;6.43;;;5.00;91.60;;;6.66;61.14;100293.84;3080870;46;21020;-65
2024/01/05 02:32:34;;;;;;;9.03;6.07;;;5.00;91.50;;;6.65;60.99;100289.63;3080683;46;21048;-66
2024/01/05 02:35:03;;;;;;;10.23;6.60;;;5.00;91.50;;;6.62;61.38;100284.69;3082066;46;20560;-66
2024/01/05 02:37:31;;;;;;;12.57;7.50;;;5.00;91.60;;;6.61;61.52;100284.84;3082714;46;20470;-66
2024/01/05 02:39:59;;;;;;;10.50;6.80;;;5.00;91.60;;;6.58;61.61;100275.56;3083298;46;20464;-66
2024/01/05 02:42:29;;;;;;;10.90;6.43;;;5.00;91.70;;;6.60;61.67;100283.22;3082775;46;21043;-66
2024/01/05 02:44:57;;;;;;;11.03;6.83;;;4.90;91.90;;;6.60;61.92;100276.22;3082977;46;20948;-65
2024/01/05 02:47:26;;;;;;;10.13;6.07;;;5.00;92.00;;;6.62;62.17;100282.09;3082366;46;20446;-62
2024/01/05 02:49:54;;;;;;;10.87;6.60;;;5.00;92.10;;;6.61;62.05;100269.16;3082631;46;20453;-65
2024/01/05 02:52:23;;;;;;;10.60;7.10;;;4.90;92.20;;;6.59;62.02;100271.13;3082895;46;20433;-65
2024/01/05 02:54:51;;;;;;;10.07;6.50;;;5.00;92.10;;;6.54;62.35;100269.00;3082932;46;20503;-65
2024/01/05 02:57:20;;;;;;;8.50;6.10;;;4.90;92.20;;;6.54;62.29;100263.75;3081671;46;20439;-68
2024/01/05 02:59:48;;;;;;;8.77;6.63;;;4.90;92.30;;;6.52;62.47;100255.25;3083080;46;20433;-64
2024/01/05 03:02:16;;;;;;;11.60;7.67;;;4.90;92.30;;;6.53;62.68;100256.09;3082821;46;20433;-66
2024/01/05 03:04:45;;;;;;;10.37;7.50;;;4.90;92.40;;;6.54;63.01;100250.69;3083222;46;20461;-66
2024/01/05 03:07:14;;;;;;;9.73;7.10;;;4.90;93.20;;;6.57;62.82;100237.31;3082635;46;20584;-65
2024/01/05 03:09:42;;;;;;;11.77;7.83;;;4.90;92.80;;;6.54;62.91;100232.38;3082729;46;20443;-66
2024/01/05 03:12:10;;;;;;;7.53;6.30;;;4.90;92.60;;;6.53;62.85;100237.78;3082890;46;20433;-64
2024/01/05 03:14:39;;;;;;;9.77;7.03;;;4.90;92.80;;;6.51;63.06;100232.69;3082729;46;20485;-66
2024/01/05 03:17:07;;;;;;;9.03;6.10;;;4.90;92.80;;;6.52;63.42;100228.31;3082374;46;20580;-66
2024/01/05 03:19:35;;;;;;;10.90;7.20;;;4.90;93.00;;;6.53;63.45;100225.53;3082695;46;21071;-66
2024/01/05 03:22:04;;;;;;;10.07;6.60;;;4.90;93.10;;;6.54;63.45;100215.88;3082827;46;20438;-65
2024/01/05 03:24:32;;;;;;;11.73;7.83;;;4.90;93.10;;;6.54;63.41;100216.72;3082681;46;21015;-64
2024/01/05 03:27:01;;;;;;;10.13;7.03;;;4.90;93.10;;;6.56;63.52;100214.75;3082452;46;21088;-66
2024/01/05 03:29:29;;;;;;;11.73;7.83;;;4.90;93.20;;;6.59;63.73;100213.59;3082945;46;20431;-65
2024/01/05 03:31:58;;;;;;;10.63;7.20;;;4.90;93.30;;;6.55;63.56;100202.66;3082454;46;20476;-65
2024/01/05 03:34:28;;;;;;;9.80;7.00;;;4.90;93.20;;;6.55;63.66;100207.06;3082426;46;20521;-66
2024/01/05 03:36:56;;;;;;;9.63;7.30;;;4.90;93.30;;;6.54;63.83;100208.03;3081368;46;21032;-65
2024/01/05 03:39:25;;;;;;;10.67;7.33;;;4.90;93.20;;;6.53;63.68;100204.63;3082674;46;20510;-66
2024/01/05 03:41:54;;;;;;;11.30;7.57;;;4.90;93.40;;;6.52;64.04;100200.38;3082328;46;20958;-65
2024/01/05 03:44:22;;;;;;;11.60;8.23;;;4.90;93.30;;;6.51;64.08;100195.31;3083145;46;20456;-66
2024/01/05 03:46:51;;;;;;;13.53;7.37;;;4.90;93.30;;;6.49;64.18;100182.38;3081705;46;20599;-65
2024/01/05 03:49:19;;;;;;;9.53;7.17;;;4.90;93.40;;;6.48;64.62;100172.94;3082201;46;20428;-64
2024/01/05 03:51:48;;;;;;;12.70;7.50;;;4.90;93.40;;;6.48;64.33;100172.94;3082714;46;20446;-65
2024/01/05 03:54:16;;;;;;;11.87;8.27;;;4.90;93.40;;;6.46;64.36;100172.28;3082422;46;20446;-64
2024/01/05 03:56:46;;;;;;;12.63;8.07;;;4.90;93.40;;;6.45;64.55;100175.88;3082190;46;20484;-63
2024/01/05 03:59:15;;;;;;;12.50;7.30;;;4.90;93.60;;;6.46;64.31;100167.06;3082358;46;20438;-66
2024/01/05 04:01:49;;;;;;;9.10;6.50;;;4.90;93.70;;;6.47;64.79;100168.66;3082343;46;21328;-62
2024/01/05 04:04:17;;;;;;;12.10;7.60;;;4.90;93.80;;;6.47;65.05;100163.44;3082198;46;20438;-64
2024/01/05 04:06:46;;;;;;;11.60;7.17;;;4.90;93.90;;;6.49;65.05;100156.25;3081969;46;20434;-63
2024/01/05 04:09:15;;;;;;;10.77;7.63;;;4.90;93.90;;;6.50;64.79;100157.06;3082212;46;20451;-66
2024/01/05 04:11:43;;;;;;;8.97;7.20;;;4.90;93.70;;;6.48;64.89;100154.63;3082278;46;21024;-66
2024/01/05 04:14:12;;;;;;;10.67;7.43;;;4.90;93.80;;;6.48;64.95;100154.63;3082135;46;20464;-66
2024/01/05 04:16:40;;;;;;;10.77;6.97;;;4.90;93.80;;;6.50;64.85;100150.06;3081910;46;20591;-67
2024/01/05 04:19:09;;;;;;;11.63;7.97;;;4.90;93.80;;;6.48;64.74;100138.94;3082282;46;20434;-66
2024/01/05 04:21:38;;;;;;;10.07;6.50;;;4.90;93.80;;;6.47;64.90;100142.53;3082304;46;20479;-65
2024/01/05 04:24:06;;;;;;;9.27;6.77;;;4.90;93.80;;;6.47;65.07;100142.53;3082196;46;20433;-66
2024/01/05 04:26:35;;;;;;;10.53;6.80;;;4.90;93.90;;;6.49;65.09;100127.50;3081583;46;21128;-67
2024/01/05 04:29:04;;;;;;;10.77;7.63;;;4.90;94.00;;;6.50;65.23;100123.91;3082202;46;20462;-66
2024/01/05 04:31:32;;;;;;;10.47;6.60;;;4.90;94.10;;;6.54;65.20;100124.41;3082094;46;20434;-66
2024/01/05 04:34:03;;;;;;;11.00;7.33;;;4.90;94.20;;;6.57;65.02;100121.47;3081975;46;20451;-66
2024/01/05 04:36:31;;;;;;;11.20;7.30;;;4.90;94.10;;;6.57;64.86;100124.06;3082177;46;20459;-65
2024/01/05 04:39:00;;;;;;;10.87;7.57;;;4.90;94.10;;;6.54;64.99;100114.75;3081554;46;21030;-65
2024/01/05 04:41:28;;;;;;;9.80;6.77;;;4.90;94.00;;;6.53;65.16;100109.72;3081993;46;20479;-66
2024/01/05 04:43:57;;;;;;;8.00;6.43;;;4.90;94.10;;;6.54;65.28;100106.91;3082057;46;20438;-66
2024/01/05 04:46:26;;;;;;;8.97;6.97;;;4.90;94.20;;;6.55;65.35;100108.56;3081336;46;20450;-66
2024/01/05 04:48:54;;;;;;;10.63;7.07;;;4.90;94.30;;;6.57;65.41;100106.59;3081119;46;20559;-66
2024/01/05 04:51:23;;;;;;;9.23;6.80;;;4.90;94.40;;;6.59;65.41;100104.63;3082155;46;20445;-66
2024/01/05 04:53:51;;;;;;;9.83;6.27;;;4.90;94.30;;;6.60;65.44;100100.22;3081732;46;20445;-66
2024/01/05 04:56:20;;;;;;;9.53;6.77;;;4.90;94.50;;;6.62;65.47;100096.47;3081711;46;20462;-65
2024/01/05 04:58:48;;;;;;;13.53;7.70;;;4.90;94.40;;;6.60;65.30;100093.22;3080621;46;20478;-63
2024/01/05 05:01:17;;;;;;;8.50;6.73;;;4.90;94.30;;;6.59;65.39;100099.41;3081374;46;20431;-66
2024/01/05 05:03:45;;;;;;;8.80;6.67;;;4.90;94.30;;;6.57;65.52;100101.38;3081016;46;20431;-65
2024/01/05 05:06:13;;;;;;;8.57;6.70;;;4.90;94.40;;;6.59;65.63;100102.03;3081516;46;21152;-65
2024/01/05 05:08:42;;;;;;;9.20;6.33;;;4.90;94.50;;;6.60;65.91;100101.06;3081008;46;20532;-65
2024/01/05 05:11:10;;;;;;;8.37;6.77;;;5.00;94.60;;;6.60;65.62;100093.22;3081432;46;20940;-66
2024/01/05 05:13:39;;;;;;;7.87;6.23;;;4.90;94.50;;;6.55;65.50;100079.81;3081365;46;20504;-65
2024/01/05 05:16:08;;;;;;;12.80;7.33;;;4.90;94.30;;;6.53;65.86;100084.41;3081400;46;20450;-66
2024/01/05 05:18:36;;;;;;;7.73;5.67;;;4.90;94.50;;;6.54;66.08;100079.97;3080888;46;20460;-64
2024/01/05 05:21:05;;;;;;;9.17;6.63;;;4.90;94.80;;;6.54;66.19;100082.56;3081516;46;21210;-66
2024/01/05 05:23:34;;;;;;;7.83;6.20;;;4.90;94.80;;;6.53;66.12;100066.09;3081456;46;21018;-65
2024/01/05 05:26:02;;;;;;;8.43;6.17;;;4.90;94.70;;;6.55;66.32;100071.97;3081478;46;20468;-65
2024/01/05 05:28:31;;;;;;;8.47;6.40;;;4.90;94.70;;;6.55;66.25;100066.75;3080646;46;20469;-64
2024/01/05 05:30:59;;;;;;;8.90;6.30;;;4.90;94.80;;;6.59;66.52;100067.22;3081239;46;21043;-65
2024/01/05 05:33:28;;;;;;;10.87;6.77;;;4.90;94.80;;;6.59;66.03;100070.66;3081605;46;20430;-66
2024/01/05 05:35:57;;;;;;;9.77;6.60;;;4.90;94.80;;;6.58;66.33;100061.19;3081386;46;20444;-66
2024/01/05 05:38:26;;;;;;;11.53;7.97;;;4.90;94.80;;;6.59;66.51;100062.81;3080889;46;20445;-66
2024/01/05 05:40:54;;;;;;;9.93;6.83;;;4.90;95.00;;;6.61;66.54;100055.59;3081192;46;21016;-64
2024/01/05 05:43:22;;;;;;;8.90;6.27;;;5.00;95.20;;;6.62;66.43;100049.41;3080520;46;20431;-61
2024/01/05 05:45:51;;;;;;;9.77;6.07;;;5.00;95.00;;;6.63;66.66;100050.25;3081432;46;20530;-64
2024/01/05 05:48:19;;;;;;;7.87;5.87;;;5.00;95.10;;;6.65;66.71;100049.09;3080592;46;20663;-65
2024/01/05 05:50:48;;;;;;;8.43;6.13;;;5.00;95.20;;;6.68;66.67;100046.13;3080552;46;20488;-66
2024/01/05 05:53:16;;;;;;;10.40;6.93;;;5.00;95.20;;;6.69;66.71;100041.72;3081524;46;20527;-66
2024/01/05 05:55:44;;;;;;;9.70;6.60;;;5.00;95.10;;;6.71;66.54;100045.78;3080968;46;20427;-66
2024/01/05 05:58:13;;;;;;;7.13;5.60;;;5.10;95.00;;;6.71;66.60;100039.75;3080595;46;21034;-66
2024/01/05 06:00:41;;;;;;;8.43;6.40;;;5.10;95.10;;;6.69;66.68;100029.47;3080713;46;20463;-65
2024/01/05 06:03:09;;;;;;;8.87;6.00;;;5.10;95.10;;;6.71;66.72;100039.75;3080845;46;20442;-66
2024/01/05 06:05:41;;;;;;;9.40;7.00;;;5.10;95.20;;;6.68;66.40;100029.66;3081226;46;20478;-63
2024/01/05 06:08:09;;;;;;;10.20;5.90;;;5.00;94.90;;;6.58;66.58;100029.81;3080441;46;20523;-66
2024/01/05 06:10:37;;;;;;;8.60;6.33;;;5.00;94.80;;;6.51;67.00;100031.44;3082900;46;20492;-65
2024/01/05 06:13:06;;;;;;;7.47;5.93;;;5.00;94.90;;;6.47;67.26;100032.75;3083592;46;20517;-64
2024/01/05 06:15:34;;;;;;;7.30;5.70;;;4.90;95.10;;;6.48;67.40;100033.59;3083049;46;20470;-65
2024/01/05 06:18:04;;;;;;;8.40;5.90;;;4.90;95.10;;;6.46;67.43;100030.31;3082702;46;20442;-64
2024/01/05 06:20:32;;;;;;;7.73;5.97;;;4.90;95.30;;;6.47;67.51;100038.00;3083320;46;20455;-68
2024/01/05 06:23:01;;;;;;;9.37;5.70;;;4.90;95.30;;;6.46;67.49;100031.16;3083177;46;21135;-64
2024/01/05 06:25:29;;;;;;;9.90;6.43;;;4.90;95.30;;;6.44;67.46;100027.84;3083268;46;20535;-65
2024/01/05 06:27:57;;;;;;;8.93;6.57;;;4.90;95.30;;;6.43;67.73;100034.09;3082534;46;20488;-64
2024/01/05 06:30:26;;;;;;;8.07;5.73;;;4.90;95.40;;;6.45;67.76;100039.13;3083147;46;21036;-66
2024/01/05 06:32:54;;;;;;;9.43;6.33;;;4.90;95.60;;;6.48;67.82;100038.81;3083167;46;20451;-64
2024/01/05 06:35:23;;;;;;;8.70;5.73;;;4.90;95.60;;;6.46;67.73;100041.59;3083448;46;21102;-65
2024/01/05 06:37:51;;;;;;;7.83;5.90;;;4.90;95.50;;;6.48;67.77;100044.88;3082616;46;20441;-68
2024/01/05 06:40:20;;;;;;;7.67;6.20;;;4.90;95.50;;;6.49;67.85;100041.25;3083070;46;20455;-65
2024/01/05 06:42:49;;;;;;;9.70;6.00;;;4.90;95.50;;;6.52;67.88;100034.88;3082995;46;20483;-63
2024/01/05 06:45:17;;;;;;;7.13;5.77;;;4.90;95.60;;;6.56;67.85;100020.50;3083163;46;20438;-64
2024/01/05 06:47:55;;;;;;;7.97;6.03;;;4.90;95.80;;;6.57;67.89;100022.13;3082413;46;20483;-65
2024/01/05 06:50:24;;;;;;;8.03;6.57;;;4.90;95.80;;;6.58;67.87;100015.94;3082739;46;20459;-66
2024/01/05 06:52:53;;;;;;;8.10;5.60;;;4.90;95.70;;;6.56;67.84;100016.06;3083101;46;20444;-66
2024/01/05 06:55:21;;;;;;;8.17;6.23;;;5.00;95.70;;;6.58;68.02;100011.53;3083122;46;20520;-66
2024/01/05 06:57:50;;;;;;;9.33;6.93;;;4.90;95.70;;;6.60;67.87;100009.56;3082039;46;20457;-66
2024/01/05 07:00:18;;;;;;;9.17;6.30;;;4.90;95.70;;;6.61;67.79;100012.97;3081505;46;20541;-64
2024/01/05 07:02:47;;;;;;;7.57;6.47;;;5.00;95.60;;;6.58;67.74;100008.91;3082088;46;20449;-65
2024/01/05 07:05:15;;;;;;;9.33;6.77;;;5.00;95.60;;;6.59;67.80;100020.16;3082710;46;20463;-65
2024/01/05 07:07:44;;;;;;;7.23;5.93;;;5.00;95.60;;;6.55;67.84;100024.91;3082341;46;20449;-63
2024/01/05 07:10:13;;;;;;;7.10;5.57;;;4.90;95.50;;;6.54;67.89;100023.28;3082101;46;20433;-66
2024/01/05 07:12:41;;;;;;;9.10;6.23;;;4.90;95.60;;;6.57;68.15;100017.72;3082185;46;20430;-64
2024/01/05 07:15:10;;;;;;;7.83;5.67;;;5.00;95.80;;;6.60;68.12;100013.97;3082546;46;20451;-64
2024/01/05 07:17:44;;;;;;;9.37;6.43;;;5.00;95.80;;;6.60;68.10;100006.13;3082385;46;20499;-65
2024/01/05 07:20:13;;;;;;;8.00;5.83;;;5.00;95.90;;;6.60;68.17;100011.34;3082098;46;20435;-66
2024/01/05 07:22:41;;;;;;;6.40;5.17;;;5.00;95.90;;;6.59;68.24;100018.38;3081398;46;20480;-62
2024/01/05 07:25:09;;;;;;;6.50;5.30;;;5.00;95.90;;;6.59;68.27;100020.97;3082025;46;21099;-62
2024/01/05 07:27:38;;;;;;;10.70;8.57;;;5.00;95.90;;;6.60;68.40;100022.63;3081118;46;20516;-64
2024/01/05 07:30:07;;;;;;;8.97;6.17;;;5.00;96.00;;;6.63;68.60;100017.03;3081474;46;21020;-65
2024/01/05 07:32:55;;;;;;;6.17;5.37;;;5.00;96.10;;;6.65;68.50;100020.34;3080109;43;20540;-63
2024/01/05 07:35:24;;;;;;;8.93;6.53;;;5.00;96.10;;;6.66;68.27;100031.59;3082331;46;20431;-65
2024/01/05 07:37:55;;;;;;;4.93;4.43;;;5.00;96.00;;;6.64;68.52;100018.69;3081176;46;20549;-64
2024/01/05 07:40:29;;;;;;;6.83;4.90;;;5.00;95.90;;;6.65;68.32;100017.72;3081436;46;20442;-66
2024/01/05 07:42:57;;;;;;;5.83;4.77;;;5.00;95.90;;;6.64;68.47;100029.16;3081874;46;20427;-66
2024/01/05 07:45:26;;;;;;;6.30;5.43;;;5.00;96.00;;;6.66;68.51;100018.50;3081188;46;21056;-63
2024/01/05 07:47:58;;;;;;;6.07;5.13;;;5.10;96.00;;;6.68;68.41;100022.59;3081382;46;20461;-66
2024/01/05 07:50:26;;;;;;;13.27;7.93;;;5.10;96.00;;;6.69;68.33;100021.63;3081885;46;20449;-66
2024/01/05 07:52:55;;;;;;;6.83;4.73;;;5.10;96.00;;;6.71;68.53;100024.06;3081732;46;20462;-64
2024/01/05 07:55:23;;;;;;;7.83;5.23;;;5.10;96.00;;;6.73;68.20;100027.31;3081024;46;20486;-63
2024/01/05 07:57:51;;;;;;;5.17;4.40;;;5.10;96.00;;;6.74;68.43;100027.16;3081012;46;20450;-65
2024/01/05 08:00:20;;;;;;;5.50;4.60;;;5.10;96.10;;;6.76;68.33;100027.81;3081193;46;20515;-65
2024/01/05 08:02:49;;;;;;;5.47;4.80;;;5.10;96.30;;;6.78;68.53;100011.94;3081553;46;20526;-63
2024/01/05 08:05:18;;;;;;;6.57;5.10;;;5.10;96.20;;;6.81;68.37;100009.81;3082006;46;20434;-65
2024/01/05 08:07:46;;;;;;;25.73;18.13;;;5.10;96.20;;;6.86;68.52;99998.03;3080203;46;20447;-65
2024/01/05 08:10:15;;;;;;;12.63;8.57;;;5.10;96.30;;;6.90;68.57;99999.31;3081496;46;20453;-65
2024/01/05 08:12:43;;;;;;;6.90;5.60;;;5.20;96.30;;;6.90;68.15;99991.47;3081695;46;20433;-66
2024/01/05 08:15:12;;;;;;;6.27;5.43;;;5.20;96.20;;;6.90;68.37;99991.47;3081491;46;21012;-65
2024/01/05 08:17:54;;;;;;;5.73;4.83;;;5.20;96.20;;;6.89;68.47;99995.09;3080868;46;20447;-63
2024/01/05 08:20:23;;;;;;;8.20;5.90;;;5.20;96.20;;;6.89;68.49;99995.09;3081733;46;20446;-64
2024/01/05 08:22:51;;;;;;;8.33;7.07;;;5.20;96.10;;;6.89;68.56;99990.69;3081579;46;20438;-66
2024/01/05 08:25:19;;;;;;;6.17;4.80;;;5.30;96.20;;;6.86;68.22;99992.81;3081366;46;20471;-66
2024/01/05 08:27:50;;;;;;;6.03;4.43;;;5.30;96.00;;;6.86;68.27;99990.19;3080599;46;21163;-65
2024/01/05 08:30:19;;;;;;;5.60;4.23;;;5.20;95.90;;;6.87;68.46;99995.22;3080977;46;20427;-64
2024/01/05 08:32:51;;;;;;;5.10;3.87;;;5.30;96.10;;;6.90;67.96;99996.69;3080687;46;21082;-66
2024/01/05 08:35:20;;;;;;;5.37;4.33;;;5.20;96.00;;;6.92;68.16;99989.53;3081032;46;20511;-66
2024/01/05 08:37:49;;;;;;;5.53;4.30;;;5.20;96.10;;;6.94;68.13;99987.56;3080700;46;20504;-66
2024/01/05 08:40:18;;;;;;;4.77;3.57;;;5.20;96.10;;;6.98;68.47;99983.59;3080546;43;20913;-64
2024/01/05 08:42:46;;;;;;;8.23;6.07;;;5.20;96.20;;;6.98;67.96;99989.66;3080696;46;20434;-64
2024/01/05 08:45:16;;;;;;;7.37;5.23;;;5.30;96.10;;;7.00;68.14;99989.47;3080544;46;21107;-66
2024/01/05 08:48:01;;;;;;;4.83;4.30;;;5.30;96.10;;;7.01;68.27;99993.72;3079998;46;20470;-65
2024/01/05 08:50:29;;;;;;;5.30;4.37;;;5.30;96.00;;;7.00;68.05;99992.09;3080731;46;20431;-66
2024/01/05 08:52:58;;;;;;;4.37;3.97;;;5.30;96.00;;;7.00;68.20;99992.09;3078492;43;20454;-65
2024/01/05 08:55:29;;;;;;;5.67;4.00;;;5.30;96.10;;;6.99;68.29;99986.03;3078391;46;20437;-67
2024/01/05 08:58:22;;;;;;;19.70;15.73;;;5.30;96.00;;;7.00;68.13;99984.25;3079623;46;20463;-64
2024/01/05 09:00:51;;;;;;;5.20;4.00;;;5.30;96.10;;;7.04;68.19;99988.13;3079614;46;20516;-65
2024/01/05 09:03:21;;;;;;;4.40;3.70;;;5.30;96.10;;;7.06;68.22;99984.38;3079644;46;20458;-66
2024/01/05 09:05:50;;;;;;;5.97;4.30;;;5.40;96.10;;;7.07;68.29;99988.63;3079690;46;20524;-66
2024/01/05 09:08:19;;;;;;;28.67;22.23;;;5.40;96.10;;;7.10;68.07;99984.84;3080083;46;20584;-65
2024/01/05 09:10:47;;;;;;;3.77;3.37;;;5.40;96.20;;;7.13;68.09;99984.53;3080001;46;20438;-67
2024/01/05 09:13:15;;;;;;;5.57;3.53;;;5.40;96.10;;;7.14;67.73;99983.53;3080037;43;20477;-66
2024/01/05 09:15:44;;;;;;;7.97;5.70;;;5.40;96.30;;;7.16;68.18;99994.63;3079727;46;20569;-64
2024/01/05 09:18:12;;;;;;;4.60;3.23;;;5.40;96.00;;;7.19;67.97;99989.06;3077444;46;20439;-67
2024/01/05 09:20:41;;;;;;;5.50;3.57;;;5.50;96.20;;;7.22;68.06;99988.72;3078472;46;20591;-63
2024/01/05 09:23:10;;;;;;;4.03;3.00;;;5.50;96.30;;;7.24;67.99;99984.94;3078328;46;20459;-66
2024/01/05 09:25:38;;;;;;;4.83;3.30;;;5.50;96.50;;;7.26;68.06;99990.81;3079360;46;20446;-66
2024/01/05 09:28:09;;;;;;;4.43;3.73;;;5.50;96.10;;;7.27;68.11;100002.13;3078645;46;20460;-66
2024/01/05 09:30:37;;;;;;;3.23;2.93;;;5.60;96.20;;;7.26;67.96;99996.06;3079031;46;20458;-64
2024/01/05 09:33:06;;;;;;;3.37;2.93;;;5.60;96.30;;;7.26;67.62;99993.44;3079491;46;20431;-63
2024/01/05 09:35:35;;;;;;;3.47;3.17;;;5.60;96.00;;;7.27;67.80;99989.81;3080053;46;20438;-65
2024/01/05 09:38:23;;;;;;;2.80;2.53;;;5.60;95.90;;;7.28;67.90;99998.50;3077825;46;20442;-64
2024/01/05 09:41:13;;;;;;;3.93;2.83;;;5.50;95.90;;;7.27;67.78;99999.50;3079045;46;21043;-66
2024/01/05 09:44:03;;;;;;;3.97;2.87;;;5.60;95.90;;;7.26;67.82;100008.31;3078758;44;20440;-65
2024/01/05 09:46:51;;;;;;;3.20;2.87;;;5.50;95.80;;;7.21;67.63;100006.22;3076389;46;20446;-66
2024/01/05 09:49:45;;;;;;;2.80;2.60;;;5.50;95.80;;;7.17;67.85;99994.47;3078095;46;20458;-66
2024/01/05 09:52:34;;;;;;;3.87;3.20;;;5.50;95.80;;;7.18;67.95;99995.28;3080199;46;21092;-66
2024/01/05 09:55:22;;;;;;;3.43;2.93;;;5.50;95.90;;;7.19;68.00;99991.69;3078583;46;20490;-65
2024/01/05 09:58:13;;;;;;;4.77;2.83;;;5.50;96.00;;;7.21;67.92;99990.53;3077849;46;20998;-65
2024/01/05 10:01:21;;;;;;;3.73;2.80;;;5.50;96.00;;;7.20;67.77;99988.09;3077839;46;20505;-66
2024/01/05 10:04:09;;;;;;;6.33;3.50;;;5.50;95.90;;;7.23;67.87;99990.34;3078897;46;20475;-63
2024/01/05 10:07:01;;;;;;;308.27;178.07;;;5.50;95.90;;;7.24;67.79;99987.56;3079037;46;20440;-62
2024/01/05 10:09:53;;;;;;;4.73;3.47;;;5.50;96.00;;;7.25;68.17;99985.78;3078879;46;20538;-66
2024/01/05 10:12:42;;;;;;;4.37;2.87;;;5.60;96.10;;;7.26;68.29;99987.38;3079493;46;20447;-65
2024/01/05 10:15:30;;;;;;;4.03;3.10;;;5.50;96.20;;;7.30;68.05;99983.44;3078737;46;20479;-66
2024/01/05 10:18:19;;;;;;;4.57;3.07;;;5.60;96.30;;;7.35;67.93;99983.72;3078571;46;20439;-65
2024/01/05 10:21:11;;;;;;;6.23;4.57;;;5.60;96.20;;;7.36;67.79;99977.53;3077438;43;20463;-64
2024/01/05 10:24:00;;;;;;;3.90;3.43;;;5.60;96.00;;;7.37;67.73;99974.72;3077810;46;21017;-63
2024/01/05 10:27:12;;;;;;;3.43;2.47;;;5.60;96.00;;;7.37;67.93;99963.44;3076748;46;21009;-65
2024/01/05 10:30:05;;;;;;;7.40;5.10;;;5.70;96.00;;;7.39;67.77;99962.28;3072886;46;20474;-65
2024/01/05 10:33:07;;;;;;;6.00;4.47;;;5.70;96.00;;;7.39;67.92;99962.28;3077607;46;21070;-64
2024/01/05 10:36:06;;;;;;;5.47;4.37;;;5.70;96.00;;;7.43;67.88;99962.75;3076216;46;20572;-66
2024/01/05 10:38:56;;;;;;;3.60;3.20;;;5.70;95.90;;;7.46;67.63;99962.41;3076836;46;20474;-65
2024/01/05 10:41:45;;;;;;;7.83;3.80;;;5.70;96.10;;;7.49;67.44;99962.03;3078101;46;20439;-63